createdAt,value
2022-08-12T00:00:00.091Z,56.56
2022-08-12T00:02:45.424Z,56.61
2022-08-12T00:05:32.345Z,56.84
2022-08-12T00:08:17.771Z,56.81
2022-08-12T00:11:16.829Z,56.67
2022-08-12T00:14:02.249Z,56.88
2022-08-12T00:16:48.601Z,56.67
2022-08-12T00:19:34.613Z,57.17
2022-08-12T00:22:20.227Z,56.65
2022-08-12T00:25:06.286Z,56.77
2022-08-12T00:27:52.280Z,57.43
2022-08-12T00:30:37.741Z,57.38
2022-08-12T00:33:23.224Z,57.13
2022-08-12T00:36:32.008Z,57.46
2022-08-12T00:39:18.583Z,57.62
2022-08-12T00:42:04.393Z,57.70
2022-08-12T00:44:31.363Z,57.71
2022-08-12T00:47:00.364Z,57.96
2022-08-12T00:49:29.059Z,57.91
2022-08-12T00:52:07.406Z,57.99
2022-08-12T00:54:35.364Z,58.14
2022-08-12T00:57:08.527Z,57.90
2022-08-12T00:59:36.600Z,58.50
2022-08-12T01:02:11.143Z,58.29
2022-08-12T01:04:58.692Z,58.32
2022-08-12T01:07:46.702Z,58.18
2022-08-12T01:10:33.352Z,58.65
2022-08-12T01:13:18.510Z,58.45
2022-08-12T01:15:50.467Z,58.66
2022-08-12T01:18:19.786Z,58.43
2022-08-12T01:21:00.516Z,58.33
2022-08-12T01:23:36.381Z,58.88
2022-08-12T01:26:05.008Z,58.81
2022-08-12T01:28:33.844Z,59.22
2022-08-12T01:31:05.954Z,59.28
2022-08-12T01:33:41.382Z,59.82
2022-08-12T01:36:11.232Z,59.42
2022-08-12T01:38:38.591Z,59.54
2022-08-12T01:41:05.841Z,59.27
2022-08-12T01:43:33.378Z,59.69
2022-08-12T01:46:31.085Z,59.47
2022-08-12T01:49:11.607Z,60.16
2022-08-12T01:52:21.022Z,60.11
2022-08-12T01:54:38.586Z,59.64
2022-08-12T01:57:11.241Z,59.98
2022-08-12T01:59:53.465Z,60.31
2022-08-12T02:02:46.400Z,60.39
2022-08-12T02:05:40.952Z,60.43
2022-08-12T02:08:33.300Z,60.04
2022-08-12T02:11:24.013Z,60.07
2022-08-12T02:14:13.252Z,60.67
2022-08-12T02:16:46.748Z,60.41
2022-08-12T02:19:29.967Z,60.38
2022-08-12T02:22:21.069Z,60.59
2022-08-12T02:24:50.034Z,61.05
2022-08-12T02:27:19.595Z,60.90
2022-08-12T02:29:47.621Z,60.66
2022-08-12T02:32:14.783Z,60.80
2022-08-12T02:34:43.954Z,60.77
2022-08-12T02:37:15.577Z,60.91
2022-08-12T02:39:48.386Z,61.19
2022-08-12T02:42:16.868Z,61.09
2022-08-12T02:44:45.780Z,61.66
2022-08-12T02:47:59.941Z,61.28
2022-08-12T02:50:03.892Z,61.51
2022-08-12T02:52:32.358Z,61.17
2022-08-12T02:55:28.575Z,60.97
2022-08-12T02:58:12.693Z,61.26
2022-08-12T03:00:43.557Z,61.06
2022-08-12T03:03:13.112Z,60.97
2022-08-12T03:06:07.100Z,60.93
2022-08-12T03:08:41.162Z,61.48
2022-08-12T03:11:23.642Z,60.99
2022-08-12T03:13:59.170Z,61.51
2022-08-12T03:16:30.261Z,61.70
2022-08-12T03:19:00.407Z,61.05
2022-08-12T03:21:58.035Z,61.07
2022-08-12T03:24:18.550Z,61.28
2022-08-12T03:26:47.589Z,61.60
2022-08-12T03:29:17.054Z,61.81
2022-08-12T03:31:44.147Z,61.48
2022-08-12T03:34:14.390Z,61.16
2022-08-12T03:36:42.236Z,61.13
2022-08-12T03:39:17.596Z,61.28
2022-08-12T03:42:07.659Z,61.51
2022-08-12T03:45:08.867Z,61.13
2022-08-12T03:48:13.384Z,61.16
2022-08-12T03:51:04.945Z,61.25
2022-08-12T03:53:50.849Z,61.06
2022-08-12T03:56:36.584Z,60.90
2022-08-12T03:59:23.720Z,61.02
2022-08-12T04:01:57.540Z,61.20
2022-08-12T04:04:34.225Z,61.06
2022-08-12T04:07:03.631Z,61.08
2022-08-12T04:09:31.048Z,61.19
2022-08-12T04:12:16.362Z,61.31
2022-08-12T04:14:43.212Z,61.04
2022-08-12T04:17:10.205Z,61.50
2022-08-12T04:19:37.490Z,61.06
2022-08-12T04:22:07.401Z,60.93
2022-08-12T04:24:36.002Z,60.99
2022-08-12T04:27:10.266Z,60.80
2022-08-12T04:30:31.511Z,61.04
2022-08-12T04:32:26.241Z,61.06
2022-08-12T04:34:54.121Z,60.61
2022-08-12T04:37:21.118Z,60.37
2022-08-12T04:39:48.741Z,60.17
2022-08-12T04:42:16.235Z,60.16
2022-08-12T04:44:43.359Z,58.58
2022-08-12T04:47:14.313Z,56.63
2022-08-12T04:49:44.082Z,52.23
2022-08-12T04:52:11.550Z,51.47
2022-08-12T04:54:38.571Z,51.34
2022-08-12T04:57:09.858Z,49.16
2022-08-12T04:59:48.358Z,43.40
2022-08-12T05:02:31.502Z,41.63
2022-08-12T05:05:00.874Z,41.19
2022-08-12T05:07:34.269Z,41.41
2022-08-12T05:10:12.514Z,40.49
2022-08-12T05:12:44.923Z,38.14
2022-08-12T05:15:26.713Z,37.82
2022-08-12T05:17:55.959Z,37.49
2022-08-12T05:20:25.840Z,35.10
2022-08-12T05:23:13.016Z,37.13
2022-08-12T05:25:43.171Z,41.84
2022-08-12T05:28:10.962Z,43.00
2022-08-12T05:30:37.826Z,43.21
2022-08-12T05:33:05.945Z,45.80
2022-08-12T05:35:40.221Z,45.55
2022-08-12T05:38:30.345Z,46.01
2022-08-12T05:40:57.479Z,45.39
2022-08-12T05:43:24.931Z,46.42
2022-08-12T05:45:51.787Z,46.39
2022-08-12T05:48:19.474Z,46.26
2022-08-12T05:50:46.487Z,47.59
2022-08-12T05:53:13.590Z,47.05
2022-08-12T05:55:40.831Z,46.72
2022-08-12T05:58:10.416Z,46.46
2022-08-12T06:00:38.108Z,46.02
2022-08-12T06:03:06.176Z,45.60
2022-08-12T06:05:55.447Z,46.17
2022-08-12T06:08:24.869Z,45.18
2022-08-12T06:10:52.279Z,44.33
2022-08-12T06:13:25.679Z,44.99
2022-08-12T06:16:07.407Z,44.19
2022-08-12T06:18:34.915Z,43.70
2022-08-12T06:21:02.552Z,43.96
2022-08-12T06:23:30.215Z,43.47
2022-08-12T06:25:57.704Z,44.74
2022-08-12T06:28:25.366Z,44.32
2022-08-12T06:31:22.223Z,44.03
2022-08-12T06:33:55.502Z,43.67
2022-08-12T06:36:29.469Z,43.48
2022-08-12T06:38:57.524Z,42.92
2022-08-12T06:42:04.941Z,42.86
2022-08-12T06:44:29.911Z,42.27
2022-08-12T06:46:58.487Z,42.51
2022-08-12T06:49:25.877Z,41.58
2022-08-12T06:51:56.138Z,42.21
2022-08-12T06:54:31.014Z,42.07
2022-08-12T06:57:03.693Z,41.10
2022-08-12T06:59:32.586Z,41.10
2022-08-12T07:01:59.471Z,40.72
2022-08-12T07:04:36.399Z,40.80
2022-08-12T07:07:05.933Z,40.27
2022-08-12T07:09:59.497Z,39.91
2022-08-12T07:12:20.041Z,39.62
2022-08-12T07:14:51.580Z,39.34
2022-08-12T07:17:18.872Z,40.47
2022-08-12T07:19:48.618Z,40.94
2022-08-12T07:22:16.577Z,39.82
2022-08-12T07:25:03.988Z,38.77
2022-08-12T07:27:31.138Z,39.40
2022-08-12T07:30:04.712Z,40.37
2022-08-12T07:32:32.255Z,39.06
2022-08-12T07:34:59.048Z,39.23
2022-08-12T07:37:25.981Z,39.48
2022-08-12T07:40:00.625Z,39.40
2022-08-12T07:42:29.524Z,38.93
2022-08-12T07:44:56.767Z,37.85
2022-08-12T07:47:24.665Z,38.17
2022-08-12T07:50:04.830Z,38.12
2022-08-12T07:52:38.435Z,38.32
2022-08-12T07:55:06.223Z,37.56
2022-08-12T07:57:33.523Z,37.28
2022-08-12T08:00:06.197Z,37.11
2022-08-12T08:02:33.805Z,36.87
2022-08-12T08:05:00.948Z,35.75
2022-08-12T08:07:30.834Z,36.38
2022-08-12T08:10:00.590Z,36.16
2022-08-12T08:12:47.502Z,37.34
2022-08-12T08:15:15.777Z,36.36
2022-08-12T08:18:02.739Z,35.93
2022-08-12T08:20:41.269Z,35.73
2022-08-12T08:23:15.764Z,34.82
2022-08-12T08:25:43.052Z,35.12
2022-08-12T08:28:12.629Z,34.59
2022-08-12T08:30:42.982Z,34.03
2022-08-12T08:33:20.146Z,34.64
2022-08-12T08:35:50.137Z,34.63
2022-08-12T08:38:33.039Z,35.35
2022-08-12T08:42:17.444Z,35.71
2022-08-12T08:44:11.235Z,35.25
2022-08-12T08:46:39.726Z,34.50
2022-08-12T08:49:07.053Z,34.74
2022-08-12T08:51:34.620Z,35.08
2022-08-12T08:54:01.625Z,34.78
2022-08-12T08:56:31.254Z,34.27
2022-08-12T08:58:58.305Z,34.63
2022-08-12T09:01:26.289Z,35.13
2022-08-12T09:05:08.432Z,34.96
2022-08-12T09:06:53.704Z,34.81
2022-08-12T09:09:21.447Z,34.31
2022-08-12T09:12:11.697Z,35.16
2022-08-12T09:14:47.046Z,34.29
2022-08-12T09:17:21.267Z,34.62
2022-08-12T09:19:55.214Z,33.75
2022-08-12T09:22:29.314Z,33.12
2022-08-12T09:24:59.806Z,36.01
2022-08-12T09:28:03.660Z,35.89
2022-08-12T09:30:16.171Z,33.20
2022-08-12T09:33:05.252Z,33.50
2022-08-12T09:35:33.689Z,32.85
2022-08-12T09:38:25.590Z,32.87
2022-08-12T09:42:09.088Z,33.23
2022-08-12T09:44:05.490Z,33.01
2022-08-12T09:46:34.583Z,31.15
2022-08-12T09:49:04.098Z,31.88
2022-08-12T09:51:43.674Z,33.06
2022-08-12T09:54:34.573Z,33.16
2022-08-12T09:57:03.615Z,33.59
2022-08-12T10:00:17.091Z,32.85
2022-08-12T10:02:59.338Z,32.28
2022-08-12T10:06:20.529Z,32.14
2022-08-12T10:08:17.728Z,32.31
2022-08-12T10:11:06.601Z,32.59
2022-08-12T10:13:44.017Z,31.75
2022-08-12T10:16:43.756Z,31.18
2022-08-12T10:19:17.111Z,32.24
2022-08-12T10:21:45.231Z,31.43
2022-08-12T10:24:20.109Z,32.58
2022-08-12T10:27:06.313Z,32.26
2022-08-12T10:30:39.353Z,31.80
2022-08-12T10:32:44.851Z,32.19
2022-08-12T10:35:16.485Z,32.27
2022-08-12T10:38:34.422Z,32.71
2022-08-12T10:40:33.937Z,34.32
2022-08-12T10:43:20.477Z,34.27
2022-08-12T10:45:49.801Z,33.83
2022-08-12T10:48:26.953Z,33.51
2022-08-12T10:52:03.721Z,33.78
2022-08-12T10:54:00.842Z,33.40
2022-08-12T10:56:34.413Z,33.74
2022-08-12T10:59:05.631Z,33.24
2022-08-12T11:04:31.225Z,33.01
2022-08-12T11:04:41.454Z,33.19
2022-08-12T11:08:34.868Z,33.17
2022-08-12T11:10:02.789Z,32.94
2022-08-12T11:12:55.609Z,33.88
2022-08-12T11:15:24.189Z,34.16
2022-08-12T11:18:03.101Z,34.36
2022-08-12T11:20:31.181Z,33.89
2022-08-12T11:23:04.180Z,34.35
2022-08-12T11:25:42.270Z,35.57
2022-08-12T11:28:33.206Z,34.98
2022-08-12T11:31:02.614Z,36.31
2022-08-12T11:34:05.233Z,35.92
2022-08-12T11:36:18.317Z,35.52
2022-08-12T11:38:50.709Z,36.75
2022-08-12T11:41:30.910Z,36.33
2022-08-12T11:44:12.665Z,35.90
2022-08-12T11:46:52.695Z,36.04
2022-08-12T11:49:31.264Z,35.95
2022-08-12T11:52:03.179Z,36.21
2022-08-12T11:54:30.985Z,36.27
2022-08-12T11:57:00.500Z,35.98
2022-08-12T12:02:20.807Z,35.65
2022-08-12T12:04:53.022Z,35.55
2022-08-12T12:08:35.986Z,35.79
2022-08-12T12:10:18.437Z,35.52
2022-08-12T12:12:50.017Z,36.58
2022-08-12T12:15:24.725Z,36.56
2022-08-12T12:17:55.624Z,35.53
2022-08-12T12:20:26.170Z,35.24
2022-08-12T12:22:57.319Z,34.25
2022-08-12T12:25:59.642Z,33.73
2022-08-12T12:28:37.718Z,33.10
2022-08-12T12:30:58.493Z,34.29
2022-08-12T12:33:26.504Z,33.08
2022-08-12T12:36:20.359Z,32.86
2022-08-12T12:38:50.039Z,32.60
2022-08-12T12:41:20.590Z,31.69
2022-08-12T12:43:47.589Z,32.00
2022-08-12T12:46:30.263Z,31.70
2022-08-12T12:48:57.153Z,32.47
2022-08-12T12:51:55.156Z,31.59
2022-08-12T12:54:12.455Z,31.07
2022-08-12T12:56:42.329Z,32.38
2022-08-12T12:59:55.810Z,32.09
2022-08-12T13:01:56.888Z,32.91
2022-08-12T13:04:24.685Z,32.15
2022-08-12T13:06:52.327Z,32.60
2022-08-12T13:09:22.125Z,31.85
2022-08-12T13:11:53.506Z,32.22
2022-08-12T13:14:27.946Z,31.43
2022-08-12T13:16:57.760Z,32.76
2022-08-12T13:19:37.680Z,32.82
2022-08-12T13:22:20.041Z,31.63
2022-08-12T13:24:54.554Z,31.20
2022-08-12T13:27:22.462Z,31.72
2022-08-12T13:29:49.478Z,32.09
2022-08-12T13:32:30.773Z,32.29
2022-08-12T13:35:03.894Z,32.67
2022-08-12T13:37:44.158Z,31.30
2022-08-12T13:40:20.638Z,31.31
2022-08-12T13:42:53.255Z,30.77
2022-08-12T13:45:20.300Z,31.01
2022-08-12T13:48:06.725Z,30.43
2022-08-12T13:50:41.166Z,30.43
2022-08-12T13:53:24.587Z,30.92
2022-08-12T13:56:02.056Z,30.26
2022-08-12T13:58:30.712Z,30.52
2022-08-12T14:00:58.630Z,30.91
2022-08-12T14:03:28.142Z,31.37
2022-08-12T14:05:59.409Z,31.14
2022-08-12T14:08:34.465Z,30.74
2022-08-12T14:11:02.150Z,30.58
2022-08-12T14:14:03.190Z,30.53
2022-08-12T14:16:37.643Z,31.07
2022-08-12T14:19:21.816Z,30.97
2022-08-12T14:21:59.191Z,30.79
2022-08-12T14:24:35.074Z,31.35
2022-08-12T14:27:03.170Z,32.24
2022-08-12T14:29:38.105Z,31.83
2022-08-12T14:32:18.234Z,31.85
2022-08-12T14:34:51.345Z,32.39
2022-08-12T14:37:56.605Z,33.27
2022-08-12T14:40:07.307Z,33.39
2022-08-12T14:42:34.286Z,32.95
2022-08-12T14:45:02.224Z,33.50
2022-08-12T14:47:35.519Z,33.12
2022-08-12T14:50:58.350Z,33.01
2022-08-12T14:58:32.063Z,33.34
2022-08-12T15:01:21.160Z,33.53
2022-08-12T15:03:52.386Z,33.22
2022-08-12T15:06:44.666Z,33.79
2022-08-12T15:09:12.120Z,33.17
2022-08-12T15:11:55.621Z,34.03
2022-08-12T15:14:30.280Z,33.73
2022-08-12T15:17:00.499Z,33.63
2022-08-12T15:20:30.898Z,32.89
2022-08-12T15:22:39.365Z,33.12
2022-08-12T15:25:07.429Z,32.58
2022-08-12T15:28:11.105Z,33.29
2022-08-12T15:30:30.709Z,33.24
2022-08-12T15:32:58.104Z,33.40
2022-08-12T15:35:31.167Z,33.27
2022-08-12T15:38:10.342Z,33.01
2022-08-12T15:40:48.458Z,33.29
2022-08-12T15:43:51.593Z,33.21
2022-08-12T15:46:06.250Z,33.13
2022-08-12T15:48:33.216Z,33.12
2022-08-12T15:51:04.045Z,33.25
2022-08-12T15:53:53.377Z,33.13
2022-08-12T15:56:29.444Z,33.10
2022-08-12T15:59:00.721Z,32.77
2022-08-12T16:01:35.711Z,32.63
2022-08-12T16:04:05.178Z,32.16
2022-08-12T16:09:56.449Z,32.00
2022-08-12T16:12:11.253Z,32.25
2022-08-12T16:14:39.376Z,32.29
2022-08-12T16:17:08.762Z,32.34
2022-08-12T16:20:03.664Z,32.95
2022-08-12T16:22:24.504Z,33.17
2022-08-12T16:24:54.102Z,33.30
2022-08-12T16:27:25.597Z,33.13
2022-08-12T16:29:57.421Z,33.24
2022-08-12T16:32:31.755Z,33.47
2022-08-12T16:35:00.072Z,33.40
2022-08-12T16:38:04.888Z,33.67
2022-08-12T16:40:15.760Z,33.90
2022-08-12T16:42:53.655Z,33.93
2022-08-12T16:46:03.974Z,34.41
2022-08-12T16:48:34.182Z,34.29
2022-08-12T16:51:09.487Z,34.21
2022-08-12T16:53:45.106Z,34.51
2022-08-12T16:56:14.722Z,34.52
2022-08-12T16:58:42.255Z,34.82
2022-08-12T17:01:14.590Z,35.09
2022-08-12T17:03:52.445Z,35.38
2022-08-12T17:18:42.719Z,36.94
2022-08-12T17:21:07.519Z,37.47
2022-08-12T17:23:48.582Z,37.97
2022-08-12T17:26:22.263Z,38.34
2022-08-12T17:28:52.435Z,38.75
2022-08-12T17:32:00.223Z,39.09
2022-08-12T17:34:17.325Z,39.43
2022-08-12T17:36:44.680Z,39.83
2022-08-12T17:39:15.785Z,40.21
2022-08-12T17:41:57.173Z,40.50
2022-08-12T17:44:24.455Z,40.87
2022-08-12T17:46:53.880Z,41.04
2022-08-12T17:50:03.042Z,41.33
2022-08-12T17:52:08.864Z,41.43
2022-08-12T17:54:37.730Z,41.67
2022-08-12T17:57:16.072Z,41.87
2022-08-12T17:59:49.452Z,42.00
2022-08-12T18:02:25.558Z,42.15
2022-08-12T18:05:04.989Z,42.43
2022-08-12T18:07:37.177Z,42.71
2022-08-12T18:10:07.278Z,42.93
2022-08-12T18:12:40.228Z,43.21
2022-08-12T18:15:26.083Z,43.39
2022-08-12T18:17:59.904Z,43.42
2022-08-12T18:20:29.030Z,43.52
2022-08-12T18:22:59.434Z,43.59
2022-08-12T18:26:13.861Z,43.80
2022-08-12T18:28:36.744Z,43.87
2022-08-12T18:31:04.536Z,43.85
2022-08-12T18:33:43.791Z,43.89
2022-08-12T18:36:13.533Z,44.24
2022-08-12T18:38:41.439Z,44.21
2022-08-12T18:41:30.615Z,44.34
2022-08-12T18:44:11.470Z,44.50
2022-08-12T18:46:55.591Z,44.90
2022-08-12T18:49:33.473Z,45.74
2022-08-12T18:52:05.717Z,45.57
2022-08-12T18:54:41.446Z,45.75
2022-08-12T18:57:45.476Z,45.86
2022-08-12T19:00:07.713Z,45.96
2022-08-12T19:02:40.298Z,46.17
2022-08-12T19:05:10.778Z,46.35
2022-08-12T19:07:49.264Z,46.43
2022-08-12T19:10:26.160Z,46.80
2022-08-12T19:13:18.564Z,46.82
2022-08-12T19:15:50.371Z,46.96
2022-08-12T19:18:17.767Z,46.99
2022-08-12T19:20:50.717Z,47.19
2022-08-12T19:23:21.485Z,47.30
2022-08-12T19:26:01.567Z,47.57
2022-08-12T19:28:34.771Z,47.71
2022-08-12T19:31:57.153Z,47.94
2022-08-12T19:37:27.830Z,48.38
2022-08-12T19:40:31.022Z,48.18
2022-08-12T19:43:19.136Z,48.32
2022-08-12T19:45:53.644Z,48.84
2022-08-12T19:48:22.883Z,49.12
2022-08-12T19:50:53.378Z,49.06
2022-08-12T19:53:22.745Z,49.92
2022-08-12T19:55:54.221Z,50.65
2022-08-12T19:58:22.771Z,50.25
2022-08-12T20:00:52.788Z,50.05
2022-08-12T20:03:37.937Z,50.14
2022-08-12T20:06:15.949Z,50.28
2022-08-12T20:08:56.019Z,50.60
2022-08-12T20:12:13.146Z,50.70
2022-08-12T20:14:18.927Z,51.18
2022-08-12T20:16:53.193Z,51.88
2022-08-12T20:19:52.500Z,52.95
2022-08-12T20:22:23.979Z,52.62
2022-08-12T20:24:57.028Z,52.82
2022-08-12T20:27:28.690Z,52.79
2022-08-12T20:30:13.901Z,53.41
2022-08-12T20:33:18.814Z,53.21
2022-08-12T20:36:06.851Z,55.27
2022-08-12T20:38:39.795Z,55.14
2022-08-12T20:41:16.448Z,54.61
2022-08-12T20:43:49.400Z,54.54
2022-08-12T20:46:19.254Z,55.21
2022-08-12T20:48:54.872Z,54.57
2022-08-12T20:51:27.590Z,54.54
2022-08-12T20:53:58.909Z,54.93
2022-08-12T20:56:33.086Z,54.92
2022-08-12T20:59:06.745Z,55.39
2022-08-12T21:01:46.397Z,56.73
2022-08-12T21:04:33.143Z,55.66
2022-08-12T21:07:04.724Z,55.58
2022-08-12T21:09:42.234Z,55.47
2022-08-12T21:12:37.521Z,55.81
2022-08-12T21:15:23.944Z,56.25
2022-08-12T21:18:08.057Z,56.12
2022-08-12T21:20:36.892Z,55.65
2022-08-12T21:23:06.304Z,55.63
2022-08-12T21:25:44.500Z,55.36
2022-08-12T21:28:13.556Z,55.09
2022-08-12T21:31:11.204Z,54.77
2022-08-12T21:33:32.018Z,54.49
2022-08-12T21:36:14.494Z,54.35
2022-08-12T21:39:20.908Z,55.09
2022-08-12T21:41:53.519Z,58.16
2022-08-12T21:44:32.603Z,57.52
2022-08-12T21:47:19.818Z,56.62
2022-08-12T21:49:53.737Z,55.92
2022-08-12T21:52:34.216Z,56.71
2022-08-12T21:55:03.791Z,55.88
2022-08-12T21:57:36.413Z,57.08
2022-08-12T22:00:19.039Z,56.55
2022-08-12T22:03:04.778Z,56.55
2022-08-12T22:05:50.261Z,56.06
2022-08-12T22:08:22.324Z,55.89
2022-08-12T22:10:52.769Z,55.71
2022-08-12T22:14:07.682Z,55.56
2022-08-12T22:16:15.884Z,55.10
2022-08-12T22:18:50.630Z,54.75
2022-08-12T22:21:19.674Z,54.42
2022-08-12T22:24:05.168Z,54.23
2022-08-12T22:26:37.948Z,53.84
2022-08-12T22:29:26.750Z,53.45
2022-08-12T22:31:55.489Z,53.13
2022-08-12T22:34:29.339Z,52.76
2022-08-12T22:36:57.450Z,52.47
2022-08-12T22:39:26.385Z,52.22
2022-08-12T22:42:12.257Z,52.36
2022-08-12T22:44:57.611Z,52.27
2022-08-12T22:47:45.826Z,51.98
2022-08-12T22:50:26.822Z,51.95
2022-08-12T22:53:14.589Z,51.92
2022-08-12T22:56:06.322Z,51.93
2022-08-12T22:58:42.217Z,51.99
2022-08-12T23:01:13.802Z,52.03
2022-08-12T23:03:50.979Z,52.07
2022-08-12T23:06:23.782Z,52.17
2022-08-12T23:08:52.100Z,51.86
2022-08-12T23:11:23.986Z,51.95
2022-08-12T23:14:03.527Z,51.88
2022-08-12T23:16:34.128Z,51.75
2022-08-12T23:19:10.569Z,51.59
2022-08-12T23:22:04.942Z,51.72
2022-08-12T23:24:56.318Z,51.72
2022-08-12T23:27:51.914Z,51.83
2022-08-12T23:30:31.649Z,51.90
2022-08-12T23:33:13.470Z,51.99
2022-08-12T23:35:59.347Z,51.91
2022-08-12T23:38:32.759Z,52.08
2022-08-12T23:41:01.687Z,52.31
2022-08-12T23:43:38.371Z,52.10
2022-08-12T23:46:08.619Z,52.12
2022-08-12T23:48:35.809Z,52.31
2022-08-12T23:51:21.675Z,52.16
2022-08-12T23:53:52.914Z,52.24
2022-08-12T23:56:23.752Z,52.51
2022-08-12T23:58:52.858Z,52.65
